Time;durP1;ratioP1;P1;durP2;ratioP2;P2;SDS_P1;SDS_P2;PMS_P1;PMS_P2;Temp;Humidity;BMP_temperature;BMP_pressure;BME280_temperature;BME280_humidity;BME280_pressure;Samples;Min_cycle;Max_cycle;Signal;HPM_P1;HPM_P2
2021/06/25 00:01:22;;;;;;;12.93;8.23;;;;;;;22.51;100.00;96273.31;5051465;28;20226;-86
2021/06/25 00:03:50;;;;;;;18.37;7.33;;;;;;;22.42;100.00;96281.94;5051249;28;20220;-86
2021/06/25 00:06:18;;;;;;;13.30;7.10;;;;;;;22.39;100.00;96280.53;5051250;28;20190;-86
2021/06/25 00:08:45;;;;;;;10.73;7.60;;;;;;;22.43;100.00;96270.16;5051223;28;20190;-86
2021/06/25 00:11:13;;;;;;;10.43;7.23;;;;;;;22.35;100.00;96273.19;5050861;28;20194;-85
2021/06/25 00:13:40;;;;;;;12.07;7.17;;;;;;;22.25;100.00;96277.25;5051074;28;20293;-86
2021/06/25 00:16:07;;;;;;;14.53;7.17;;;;;;;22.18;100.00;96286.47;5050993;28;20234;-86
2021/06/25 00:18:34;;;;;;;11.23;6.87;;;;;;;22.30;100.00;96269.34;5051095;28;20238;-86
2021/06/25 00:21:03;;;;;;;10.33;6.93;;;;;;;22.18;100.00;96265.03;5050397;28;20224;-86
2021/06/25 00:23:31;;;;;;;9.43;7.33;;;;;;;22.15;100.00;96257.47;5050218;28;20212;-86
2021/06/25 00:25:59;;;;;;;11.80;6.67;;;;;;;22.23;100.00;96251.75;5050781;28;20285;-86
2021/06/25 00:28:26;;;;;;;14.67;7.77;;;;;;;22.23;100.00;96251.75;5051090;28;20190;-87
2021/06/25 00:30:54;;;;;;;10.80;6.60;;;;;;;22.29;100.00;96232.09;5051020;28;20202;-86
2021/06/25 00:33:21;;;;;;;10.60;7.20;;;;;;;22.29;100.00;96216.84;5051229;28;20285;-86
2021/06/25 00:35:48;;;;;;;10.63;6.90;;;;;;;22.16;100.00;96216.25;5050863;28;20198;-87
2021/06/25 00:38:17;;;;;;;16.13;7.60;;;;;;;22.04;100.00;96224.28;5050794;28;20660;-86
2021/06/25 00:40:44;;;;;;;8.80;7.40;;;;;;;22.15;100.00;96214.66;5050925;28;20229;-86
2021/06/25 00:43:12;;;;;;;12.70;7.37;;;;;;;22.03;100.00;96222.63;5050584;28;20732;-86
2021/06/25 00:45:39;;;;;;;12.03;7.40;;;;;;;21.89;100.00;96226.56;5050485;28;20232;-86
2021/06/25 00:48:07;;;;;;;11.60;7.47;;;;;;;21.86;100.00;96206.47;5050789;28;20198;-86
2021/06/25 00:50:36;;;;;;;11.87;7.87;;;;;;;21.88;100.00;96176.78;5050446;28;20432;-86
2021/06/25 00:53:04;;;;;;;13.73;7.97;;;;;;;21.91;100.00;96155.72;5050651;28;20194;-86
2021/06/25 00:55:41;;;;;;;12.17;7.07;;;;;;;21.84;100.00;96138.97;5050865;28;20217;-86
2021/06/25 00:58:11;;;;;;;13.33;8.10;;;;;;;21.90;100.00;96134.56;5050907;28;20238;-86
2021/06/25 01:00:38;;;;;;;14.23;7.30;;;;;;;21.55;100.00;96127.34;5050392;28;20217;-86
2021/06/25 01:03:06;;;;;;;12.60;7.57;;;;;;;21.26;100.00;96153.06;5050541;28;20190;-86
2021/06/25 01:05:34;;;;;;;10.77;7.43;;;;;;;21.19;100.00;96171.03;5050257;28;20221;-86
2021/06/25 01:08:01;;;;;;;13.83;7.17;;;;;;;21.11;100.00;96175.66;5050341;28;20233;-86
2021/06/25 01:10:29;;;;;;;14.30;7.17;;;;;;;21.23;100.00;96151.63;5050230;28;20324;-85
2021/06/25 01:12:58;;;;;;;15.23;7.87;;;;;;;21.14;100.00;96145.81;5050453;28;20266;-86
2021/06/25 01:15:26;;;;;;;10.43;7.40;;;;;;;21.29;100.00;96132.03;5050145;28;20679;-86
2021/06/25 01:17:53;;;;;;;8.43;7.20;;;;;;;21.61;100.00;96105.00;5050240;28;20194;-86
2021/06/25 01:20:25;;;;;;;14.13;7.80;;;;;;;21.81;100.00;96077.91;5050475;28;20226;-87
2021/06/25 01:22:54;;;;;;;13.27;6.80;;;;;;;21.63;100.00;96073.50;5050360;28;20278;-86
2021/06/25 01:25:26;;;;;;;8.90;7.60;;;;;;;21.57;100.00;96110.00;5050149;28;20237;-87
2021/06/25 01:27:56;;;;;;;11.00;6.70;;;;;;;21.44;100.00;96126.28;5050069;28;20324;-87
2021/06/25 01:30:25;;;;;;;17.00;7.73;;;;;;;21.46;100.00;96134.06;5050292;28;20198;-87
2021/06/25 01:32:52;;;;;;;11.17;8.47;;;;;;;21.74;100.00;96117.34;5050535;28;20202;-86
2021/06/25 01:35:20;;;;;;;15.47;7.83;;;;;;;21.69;100.00;96099.31;5050181;28;20288;-88
2021/06/25 01:37:48;;;;;;;12.47;7.30;;;;;;;21.64;100.00;96101.06;5050047;28;20319;-87
2021/06/25 01:40:19;;;;;;;14.80;7.37;;;;;;;21.79;100.00;96104.91;5050329;28;20202;-87
2021/06/25 01:42:48;;;;;;;11.77;7.60;;;;;;;21.76;100.00;96091.19;5049186;28;20186;-86
2021/06/25 01:45:17;;;;;;;12.97;8.13;;;;;;;21.70;100.00;96090.25;5049682;28;20282;-87
2021/06/25 01:47:46;;;;;;;9.53;6.83;;;;;;;21.67;100.00;96103.28;5050070;28;20194;-87
2021/06/25 01:50:15;;;;;;;18.47;8.37;;;;;;;21.80;100.00;96100.38;5049962;28;20237;-87
2021/06/25 01:52:44;;;;;;;9.47;7.53;;;;;;;21.73;100.00;96087.09;5049896;28;20270;-87
2021/06/25 01:55:12;;;;;;;9.20;7.30;;;;;;;21.72;100.00;96076.66;5049733;28;20202;-87
2021/06/25 01:57:42;;;;;;;15.23;8.53;;;;;;;21.65;100.00;96060.72;5049702;28;20198;-87
2021/06/25 02:00:12;;;;;;;8.77;7.27;;;;;;;21.40;100.00;96062.78;5049738;28;20186;-86
2021/06/25 02:02:40;;;;;;;11.27;6.67;;;;;;;21.26;100.00;96070.19;5049521;28;20667;-87
2021/06/25 02:05:09;;;;;;;11.10;6.60;;;;;;;21.26;100.00;96070.19;5049393;28;20268;-87
2021/06/25 02:07:36;;;;;;;11.23;6.80;;;;;;;21.21;100.00;96054.03;5049684;28;20190;-86
2021/06/25 02:10:06;;;;;;;11.27;6.93;;;;;;;21.13;100.00;96047.19;5049505;28;20225;-87
2021/06/25 02:12:35;;;;;;;17.13;7.07;;;;;;;21.11;100.00;96042.06;5049397;28;20198;-87
2021/06/25 02:15:05;;;;;;;9.77;7.37;;;;;;;21.01;100.00;96044.47;5049789;28;20205;-87
2021/06/25 02:17:33;;;;;;;13.23;6.87;;;;;;;21.00;100.00;96042.84;5049724;28;20190;-87
2021/06/25 02:20:00;;;;;;;7.90;7.10;;;;;;;21.27;100.00;96034.41;5049557;28;20229;-87
2021/06/25 02:22:27;;;;;;;6.77;6.03;;;;;;;21.47;100.00;96026.88;5049547;28;20589;-87
2021/06/25 02:24:55;;;;;;;14.03;6.60;;;;;;;21.31;100.00;96009.66;5049225;28;20218;-87
2021/06/25 02:27:22;;;;;;;12.10;6.77;;;;;;;21.50;100.00;96014.91;5049097;28;20276;-87
2021/06/25 02:29:49;;;;;;;17.10;6.90;;;;;;;21.45;100.00;96042.34;5048887;28;20289;-85
2021/06/25 02:32:18;;;;;;;11.27;5.87;;;;;;;21.51;100.00;96051.28;5049083;28;20194;-87
2021/06/25 02:34:45;;;;;;;7.70;6.60;;;;;;;21.42;100.00;96056.19;5049447;28;20285;-85
2021/06/25 02:37:13;;;;;;;10.97;6.43;;;;;;;21.30;100.00;96074.03;5048981;28;20750;-85
2021/06/25 02:39:40;;;;;;;10.80;6.77;;;;;;;21.09;100.00;96088.75;5049244;28;20285;-84
2021/06/25 02:42:08;;;;;;;9.73;6.50;;;;;;;21.09;100.00;96092.25;5049121;28;20190;-84
2021/06/25 02:44:35;;;;;;;13.83;8.23;;;;;;;20.89;100.00;96076.53;5048978;28;20222;-83
2021/06/25 02:47:02;;;;;;;10.00;6.73;;;;;;;20.86;100.00;96063.63;5049194;28;20589;-84
2021/06/25 02:49:31;;;;;;;13.67;7.17;;;;;;;21.02;100.00;95951.78;5048922;28;20194;-84
2021/06/25 02:51:59;;;;;;;11.73;7.60;;;;;;;21.08;100.00;95943.66;5048986;28;20198;-84
2021/06/25 02:54:26;;;;;;;13.27;7.10;;;;;;;21.02;100.00;95922.38;5050842;28;20198;-84
2021/06/25 02:56:53;;;;;;;12.97;7.17;;;;;;;20.99;100.00;95915.66;5052537;28;20754;-85
2021/06/25 02:59:20;;;;;;;13.33;7.20;;;;;;;20.80;100.00;95906.94;5052462;28;20202;-84
2021/06/25 03:01:48;;;;;;;14.93;7.00;;;;;;;20.99;100.00;95896.13;5052538;28;20209;-84
2021/06/25 03:04:15;;;;;;;12.23;6.83;;;;;;;20.99;100.00;95896.97;5052653;28;20224;-83
2021/06/25 03:06:44;;;;;;;11.10;6.83;;;;;;;21.07;100.00;95880.56;5052173;28;20233;-84
2021/06/25 03:09:12;;;;;;;10.97;6.00;;;;;;;21.17;100.00;95871.97;5052296;28;20190;-85
2021/06/25 03:11:39;;;;;;;6.53;5.73;;;;;;;21.17;100.00;95869.28;5052649;28;20675;-84
2021/06/25 03:14:06;;;;;;;10.40;7.00;;;;;;;21.11;100.00;95841.63;5052593;28;20194;-84
2021/06/25 03:16:33;;;;;;;10.13;7.20;;;;;;;21.05;100.00;95852.44;5052153;28;20244;-85
2021/06/25 03:19:01;;;;;;;11.93;7.30;;;;;;;20.90;100.00;95860.94;5052089;28;20194;-85
2021/06/25 03:21:28;;;;;;;11.20;7.33;;;;;;;20.96;100.00;95876.06;5052251;28;20586;-84
2021/06/25 03:23:57;;;;;;;14.80;7.70;;;;;;;21.03;100.00;95867.94;5052136;28;20245;-86
2021/06/25 03:26:24;;;;;;;8.47;6.13;;;;;;;21.04;100.00;95842.81;5051186;28;20273;-84
2021/06/25 03:28:58;;;;;;;9.43;7.37;;;;;;;20.93;100.00;95830.28;5055349;28;20285;-86
2021/06/25 03:31:25;;;;;;;7.40;6.60;;;;;;;20.99;100.00;95840.88;5054711;28;20194;-85
2021/06/25 03:33:52;;;;;;;9.60;6.63;;;;;;;20.92;100.00;95847.34;5052001;28;20259;-87
2021/06/25 03:36:20;;;;;;;13.07;6.90;;;;;;;21.06;100.00;95848.72;5051683;28;20250;-85
2021/06/25 03:38:47;;;;;;;7.07;6.30;;;;;;;21.00;100.00;95847.81;5066979;28;20227;-85
2021/06/25 03:41:16;;;;;;;11.57;6.77;;;;;;;21.03;100.00;95844.69;5061877;28;20186;-87
2021/06/25 03:43:43;;;;;;;9.50;7.17;;;;;;;21.07;100.00;95850.38;5051542;28;20208;-87
2021/06/25 03:46:10;;;;;;;9.83;6.47;;;;;;;21.12;100.00;95829.09;5051215;28;20221;-86
2021/06/25 03:48:38;;;;;;;7.77;6.40;;;;;;;21.01;100.00;95830.75;5051474;28;20202;-85
2021/06/25 03:51:05;;;;;;;8.73;6.77;;;;;;;21.13;100.00;95834.22;5051567;28;20608;-86
2021/06/25 03:53:33;;;;;;;9.77;6.90;;;;;;;21.10;100.00;95845.38;5050699;28;20738;-86
2021/06/25 03:56:12;;;;;;;11.77;7.03;;;;;;;21.25;100.00;95839.53;5050996;28;20238;-86
2021/06/25 03:58:44;;;;;;;11.90;7.47;;;;;;;21.00;100.00;95855.84;5051402;28;20204;-85
2021/06/25 04:01:12;;;;;;;11.43;6.97;;;;;;;21.08;100.00;95874.16;5048627;28;20230;-86
2021/06/25 04:03:39;;;;;;;10.83;6.83;;;;;;;21.20;100.00;95857.31;5050760;28;20654;-88
2021/06/25 04:06:07;;;;;;;7.97;6.60;;;;;;;21.16;100.00;95832.09;5051145;28;20646;-88
2021/06/25 04:08:36;;;;;;;13.27;6.50;;;;;;;21.26;100.00;95786.88;5051616;28;20231;-88
2021/06/25 04:11:05;;;;;;;14.40;7.13;;;;;;;21.38;100.00;95750.28;5051858;28;20202;-88
2021/06/25 04:13:34;;;;;;;9.13;6.73;;;;;;;21.36;100.00;95773.75;5051811;28;20277;-90
2021/06/25 04:16:03;;;;;;;12.63;6.70;;;;;;;21.18;100.00;95787.25;5051810;28;20289;-89
2021/06/25 04:18:31;;;;;;;9.17;6.43;;;;;;;21.23;100.00;95816.75;5051933;28;20229;-88
2021/06/25 04:20:59;;;;;;;9.30;6.67;;;;;;;21.28;100.00;95814.19;5051713;28;20708;-91
2021/06/25 04:23:26;;;;;;;9.83;6.50;;;;;;;21.30;100.00;95801.38;5051695;28;20293;-90
2021/06/25 04:25:53;;;;;;;11.60;6.50;;;;;;;21.39;100.00;95808.03;5051347;28;20728;-90
2021/06/25 04:28:21;;;;;;;12.13;7.37;;;;;;;21.52;100.00;95799.72;5051408;28;20190;-90
2021/06/25 04:30:49;;;;;;;11.23;6.40;;;;;;;21.54;100.00;95810.97;5051692;28;20653;-89
2021/06/25 04:33:18;;;;;;;9.83;6.33;;;;;;;21.66;100.00;95768.16;5051342;28;20194;-91
2021/06/25 04:35:48;;;;;;;12.93;6.30;;;;;;;21.79;100.00;95761.69;5051657;28;20243;-91
2021/06/25 04:38:15;;;;;;;14.67;6.23;;;;;;;21.97;100.00;95734.72;5051467;28;20254;-91
2021/06/25 04:40:44;;;;;;;9.70;5.63;;;;;;;22.09;100.00;95740.78;5051359;28;20197;-91
2021/06/25 04:43:15;;;;;;;10.30;5.37;;;;;;;22.26;100.00;95806.91;5051426;28;20197;-91
2021/06/25 04:45:44;;;;;;;11.83;5.43;;;;;;;22.29;100.00;95854.63;5051600;28;20213;-90
2021/06/25 04:48:13;;;;;;;14.77;5.77;;;;;;;22.37;100.00;95875.63;5051344;28;20198;-91
2021/06/25 04:50:43;;;;;;;6.77;5.00;;;;;;;22.45;100.00;95888.63;5051121;28;20202;-90
2021/06/25 04:53:11;;;;;;;8.87;5.03;;;;;;;22.51;100.00;95905.56;5051240;28;20186;-90
2021/06/25 04:55:42;;;;;;;10.03;5.43;;;;;;;22.51;100.00;95913.59;5051175;28;20662;-91
2021/06/25 04:58:10;;;;;;;12.77;6.23;;;;;;;22.61;100.00;95913.78;5051444;28;20208;-91
2021/06/25 05:00:39;;;;;;;8.77;6.20;;;;;;;22.72;100.00;95912.06;5051165;28;20194;-91
2021/06/25 05:03:07;;;;;;;13.37;6.90;;;;;;;22.67;100.00;95928.06;5051085;28;20201;-91
2021/06/25 05:05:35;;;;;;;9.17;7.43;;;;;;;22.74;100.00;95934.09;5051313;28;20226;-90
2021/06/25 05:08:04;;;;;;;12.07;6.50;;;;;;;22.87;100.00;95933.75;5051151;27;20261;-89
2021/06/25 05:10:32;;;;;;;8.67;5.87;;;;;;;22.93;100.00;95935.50;5051099;28;20198;-92
2021/06/25 05:12:59;;;;;;;8.60;6.00;;;;;;;23.05;100.00;95931.91;5050754;28;20201;-91
2021/06/25 05:15:27;;;;;;;10.43;5.87;;;;;;;23.13;100.00;95937.66;5050864;28;20194;-90
2021/06/25 05:17:54;;;;;;;17.07;7.63;;;;;;;23.26;100.00;95928.47;5049953;28;20198;-89
2021/06/25 05:20:22;;;;;;;10.37;6.03;;;;;;;23.33;100.00;95904.16;5050697;28;20250;-90
2021/06/25 05:22:49;;;;;;;11.57;6.47;;;;;;;23.38;100.00;95920.31;5050749;28;20218;-90
2021/06/25 05:25:18;;;;;;;10.53;6.13;;;;;;;23.46;100.00;95917.22;5050745;28;20217;-90
2021/06/25 05:27:45;;;;;;;7.43;5.03;;;;;;;23.63;100.00;95909.13;5050379;28;20232;-90
2021/06/25 05:30:14;;;;;;;8.47;5.47;;;;;;;23.77;100.00;95888.91;5050888;28;20254;-90
2021/06/25 05:32:41;;;;;;;10.63;4.93;;;;;;;23.89;100.00;95897.63;5050935;28;20230;-90
2021/06/25 05:35:10;;;;;;;10.23;4.97;;;;;;;24.01;100.00;95902.88;5050734;28;20266;-89
2021/06/25 05:37:37;;;;;;;9.77;4.27;;;;;;;24.13;100.00;95894.66;5050861;28;20726;-90
2021/06/25 05:40:06;;;;;;;10.37;5.13;;;;;;;24.19;100.00;95874.84;5050490;28;20258;-90
2021/06/25 05:42:35;;;;;;;14.33;5.70;;;;;;;24.41;100.00;95872.94;5050432;28;20194;-91
2021/06/25 05:45:04;;;;;;;9.27;5.07;;;;;;;24.60;100.00;95876.06;5050702;28;20297;-91
2021/06/25 05:47:31;;;;;;;9.33;5.53;;;;;;;24.69;100.00;95876.38;5050359;28;20202;-90
2021/06/25 05:49:59;;;;;;;10.83;5.33;;;;;;;24.84;100.00;95860.38;5050375;28;20208;-90
2021/06/25 05:52:26;;;;;;;12.93;5.60;;;;;;;24.94;100.00;95838.13;5050409;28;20190;-90
2021/06/25 05:54:54;;;;;;;5.53;4.60;;;;;;;25.06;100.00;95854.06;5050478;28;20250;-91
2021/06/25 05:57:21;;;;;;;10.23;5.00;;;;;;;25.16;100.00;95850.66;5050376;28;20243;-90
2021/06/25 05:59:50;;;;;;;8.53;5.07;;;;;;;25.26;100.00;95835.38;5050633;28;20677;-92
2021/06/25 06:02:17;;;;;;;6.57;5.43;;;;;;;25.41;100.00;95793.47;5050737;28;20197;-90
2021/06/25 06:04:45;;;;;;;6.70;4.37;;;;;;;25.49;100.00;95798.31;5050409;28;20661;-91
2021/06/25 06:07:13;;;;;;;8.50;4.90;;;;;;;25.59;100.00;95779.50;5049962;28;20270;-90
2021/06/25 06:09:40;;;;;;;11.97;5.30;;;;;;;25.74;100.00;95776.06;5050314;28;20209;-90
2021/06/25 06:12:09;;;;;;;15.40;4.67;;;;;;;25.93;100.00;95771.00;5050122;28;20199;-91
2021/06/25 06:14:36;;;;;;;7.43;4.00;;;;;;;26.01;100.00;95770.44;5049214;28;20198;-90
2021/06/25 06:17:05;;;;;;;6.97;4.72;;;;;;;26.17;100.00;95780.16;5049826;28;20201;-91
2021/06/25 06:19:40;;;;;;;7.53;4.78;;;;;;;26.32;100.00;95771.25;5049961;28;20198;-91
2021/06/25 06:33:10;;;;;;;11.07;5.25;;;;;;;27.09;100.00;95774.66;5049983;28;20223;-90
2021/06/25 06:35:38;;;;;;;7.55;4.75;;;;;;;27.16;100.00;95761.72;5049972;28;20198;-91
2021/06/25 06:38:06;;;;;;;11.52;5.30;;;;;;;27.40;100.00;95758.34;5049621;28;20197;-91
2021/06/25 06:40:34;;;;;;;9.55;5.65;;;;;;;27.59;100.00;95747.72;5049566;28;20197;-91
2021/06/25 06:43:01;;;;;;;12.32;6.40;;;;;;;27.63;100.00;95738.78;5049643;28;20245;-90
2021/06/25 06:45:29;;;;;;;14.38;4.93;;;;;;;27.72;100.00;95726.31;5049471;28;20281;-90
2021/06/25 06:47:56;;;;;;;11.18;6.00;;;;;;;27.78;100.00;95710.94;5049759;28;20209;-91
2021/06/25 06:50:25;;;;;;;8.18;5.80;;;;;;;27.81;100.00;95699.53;5049540;28;20255;-92
2021/06/25 06:52:52;;;;;;;8.18;4.65;;;;;;;27.94;100.00;95677.28;5049759;28;20201;-91
2021/06/25 06:55:22;;;;;;;11.38;6.20;;;;;;;28.09;100.00;95679.09;5049654;28;20273;-90
2021/06/25 06:57:50;;;;;;;11.15;5.80;;;;;;;28.13;100.00;95674.72;5049655;28;20203;-89
2021/06/25 07:00:18;;;;;;;10.82;5.88;;;;;;;28.31;100.00;95653.47;5049712;28;20256;-92
2021/06/25 07:02:46;;;;;;;7.88;5.13;;;;;;;28.41;100.00;95640.69;5049457;28;20194;-90
2021/06/25 07:05:15;;;;;;;10.57;5.63;;;;;;;28.54;100.00;95641.06;5049376;28;20210;-89
2021/06/25 07:07:44;;;;;;;9.00;6.45;;;;;;;28.49;100.00;95641.13;5049218;28;20227;-89
2021/06/25 07:10:12;;;;;;;7.63;5.65;;;;;;;28.57;100.00;95638.59;5049364;28;20277;-89
2021/06/25 07:12:41;;;;;;;8.90;6.57;;;;;;;28.75;100.00;95625.41;5049211;28;20194;-89
2021/06/25 07:15:09;;;;;;;14.63;5.68;;;;;;;28.88;100.00;95624.69;5049171;28;20198;-89
2021/06/25 07:17:37;;;;;;;7.70;5.85;;;;;;;28.91;100.00;95637.66;5049429;28;20202;-89
2021/06/25 07:20:06;;;;;;;25.08;5.95;;;;;;;29.05;100.00;95635.88;5049653;28;20202;-88
2021/06/25 07:22:34;;;;;;;10.93;6.18;;;;;;;29.18;100.00;95644.38;5049294;28;20202;-89
2021/06/25 07:25:03;;;;;;;14.00;6.35;;;;;;;29.13;100.00;95653.34;5049528;28;20230;-88
2021/06/25 07:27:30;;;;;;;10.23;6.10;;;;;;;29.17;100.00;95646.28;5048791;28;20297;-89
2021/06/25 07:29:58;;;;;;;7.10;5.63;;;;;;;29.25;100.00;95640.19;5049381;28;20229;-90
2021/06/25 07:32:27;;;;;;;12.55;6.32;;;;;;;29.23;100.00;95636.16;5048996;28;20202;-88
2021/06/25 07:34:54;;;;;;;10.27;6.60;;;;;;;29.22;100.00;95642.69;5049237;28;20198;-89
2021/06/25 07:37:22;;;;;;;9.88;6.35;;;;;;;29.39;100.00;95648.38;5048943;28;20766;-90
2021/06/25 07:39:49;;;;;;;13.07;6.53;;;;;;;29.57;100.00;95634.03;5048964;28;20202;-89
2021/06/25 07:42:18;;;;;;;10.43;5.80;;;;;;;29.44;100.00;95634.75;5051934;28;20194;-89
2021/06/25 07:44:46;;;;;;;11.93;7.22;;;;;;;29.43;100.00;95637.78;5052560;28;20232;-89
2021/06/25 07:47:13;;;;;;;9.65;6.25;;;;;;;29.56;100.00;95637.84;5052399;28;20257;-89
2021/06/25 07:49:40;;;;;;;9.65;6.28;;;;;;;29.70;100.00;95643.34;5052054;28;20197;-89
2021/06/25 07:52:08;;;;;;;11.88;6.15;;;;;;;29.99;100.00;95626.84;5052339;28;20274;-89
2021/06/25 07:54:35;;;;;;;10.68;6.28;;;;;;;30.01;100.00;95623.88;5052485;28;20653;-89
2021/06/25 07:57:03;;;;;;;13.82;6.82;;;;;;;30.11;100.00;95629.09;5052054;28;20682;-90
2021/06/25 07:59:32;;;;;;;8.98;7.40;;;;;;;30.00;100.00;95612.22;5052037;28;20201;-90
2021/06/25 08:02:00;;;;;;;10.95;6.85;;;;;;;30.12;100.00;95619.88;5052113;28;20198;-90
2021/06/25 08:04:28;;;;;;;13.38;6.57;;;;;;;30.17;100.00;95624.38;5052156;28;20289;-89
2021/06/25 08:06:56;;;;;;;16.92;6.45;;;;;;;30.36;100.00;95619.72;5052118;28;20234;-90
2021/06/25 08:09:23;;;;;;;11.75;6.38;;;;;;;30.46;100.00;95613.31;5052372;28;20194;-89
2021/06/25 08:11:51;;;;;;;10.93;6.43;;;;;;;30.46;100.00;95605.97;5051938;28;20288;-89
2021/06/25 08:14:18;;;;;;;15.07;6.10;;;;;;;30.19;100.00;95603.25;5052103;28;20201;-88
2021/06/25 08:16:47;;;;;;;8.45;6.88;;;;;;;30.52;100.00;95626.47;5051782;28;20658;-89
2021/06/25 08:19:15;;;;;;;13.27;7.78;;;;;;;30.63;100.00;95596.44;5051857;28;20235;-89
2021/06/25 08:21:42;;;;;;;10.07;6.72;;;;;;;30.58;100.00;95599.22;5051738;28;20198;-92
2021/06/25 08:24:09;;;;;;;12.18;6.47;;;;;;;30.50;100.00;95596.13;5051728;28;20681;-89
2021/06/25 08:26:37;;;;;;;10.40;6.18;;;;;;;30.49;100.00;95593.72;5051430;28;20230;-88
2021/06/25 08:29:04;;;;;;;13.60;6.93;;;;;;;30.44;100.00;95591.09;5051795;28;20583;-89
2021/06/25 08:31:32;;;;;;;9.75;6.95;;;;;;;30.54;100.00;95591.69;5052020;28;20206;-89
2021/06/25 08:34:01;;;;;;;13.70;6.47;;;;;;;30.74;100.00;95595.09;5051994;28;20660;-90
2021/06/25 08:36:28;;;;;;;13.73;6.20;;;;;;;30.98;100.00;95582.13;5051518;28;20290;-89
2021/06/25 08:38:56;;;;;;;14.13;7.10;;;;;;;31.07;100.00;95578.69;5051811;28;20676;-89
2021/06/25 08:41:23;;;;;;;9.77;6.60;;;;;;;31.03;100.00;95575.78;5051399;28;20194;-89
2021/06/25 08:43:50;;;;;;;12.80;6.32;;;;;;;30.87;100.00;95583.47;5051710;28;20210;-90
2021/06/25 08:46:18;;;;;;;11.75;6.00;;;;;;;31.00;100.00;95574.50;5051457;28;20313;-90
2021/06/25 08:48:48;;;;;;;8.23;6.18;;;;;;;31.20;100.00;95566.97;5051271;28;20251;-91
2021/06/25 08:51:18;;;;;;;8.95;6.28;;;;;;;31.38;100.00;95565.22;5051119;28;20221;-89
2021/06/25 08:53:47;;;;;;;15.55;6.30;;;;;;;31.55;100.00;95564.56;5051718;28;20240;-89
2021/06/25 08:56:14;;;;;;;7.13;5.93;;;;;;;31.65;100.00;95561.59;5051626;28;20201;-90
2021/06/25 08:58:42;;;;;;;11.00;5.85;;;;;;;31.71;100.00;95544.84;5051360;28;20194;-89
2021/06/25 09:01:11;;;;;;;7.13;5.47;;;;;;;31.60;100.00;95554.38;5051056;28;20670;-90
2021/06/25 09:03:41;;;;;;;10.60;6.05;;;;;;;31.90;100.00;95544.69;5051298;28;20280;-89
2021/06/25 09:06:10;;;;;;;11.13;6.78;;;;;;;31.90;100.00;95546.56;5051761;28;20626;-90
2021/06/25 09:08:40;;;;;;;11.68;6.13;;;;;;;32.17;100.00;95540.13;5050900;28;20226;-90
2021/06/25 09:11:20;;;;;;;12.98;5.60;;;;;;;32.17;100.00;95543.66;5050901;28;20231;-90
2021/06/25 09:13:47;;;;;;;9.05;5.93;;;;;;;32.09;100.00;95540.91;5050914;28;20193;-90
2021/06/25 09:16:25;;;;;;;11.10;5.97;;;;;;;32.02;100.00;95548.72;5050848;28;20202;-90
2021/06/25 09:19:05;;;;;;;11.25;5.90;;;;;;;31.90;100.00;95538.41;5051205;28;20186;-90
2021/06/25 09:21:34;;;;;;;13.50;6.72;;;;;;;32.18;100.00;95539.84;5051029;28;20182;-89
2021/06/25 09:24:20;;;;;;;11.90;6.05;;;;;;;32.40;100.00;95532.72;5050812;28;20202;-91
2021/06/25 09:26:48;;;;;;;11.30;5.90;;;;;;;32.49;100.00;95543.63;5050502;28;20234;-89
2021/06/25 09:29:17;;;;;;;8.18;5.10;;;;;;;32.53;100.00;95541.91;5050927;28;20582;-90
2021/06/25 09:31:45;;;;;;;11.98;5.68;;;;;;;32.60;100.00;95545.75;5050664;28;20194;-90
2021/06/25 09:34:12;;;;;;;10.85;5.75;;;;;;;32.62;100.00;95561.75;5050602;28;20662;-90
2021/06/25 09:36:40;;;;;;;10.93;5.93;;;;;;;32.53;100.00;95582.69;5050730;28;20205;-90
2021/06/25 09:39:10;;;;;;;12.35;5.75;;;;;;;32.58;100.00;95560.78;5050684;28;20233;-89
2021/06/25 09:41:40;;;;;;;14.70;6.03;;;;;;;32.68;100.00;95546.88;5051010;28;20198;-90
2021/06/25 09:44:10;;;;;;;16.63;6.40;;;;;;;32.85;100.00;95535.22;5050652;28;20223;-90
2021/06/25 09:46:40;;;;;;;9.57;5.80;;;;;;;32.91;100.00;95536.69;5050512;28;20233;-89
2021/06/25 09:49:09;;;;;;;13.75;5.47;;;;;;;33.05;100.00;95531.09;5050721;28;20197;-90
2021/06/25 09:51:39;;;;;;;11.80;5.75;;;;;;;33.03;100.00;95572.25;5050328;28;20408;-90
2021/06/25 09:54:13;;;;;;;13.15;6.00;;;;;;;33.18;100.00;95541.00;5050322;28;20208;-90
2021/06/25 09:56:50;;;;;;;12.57;6.10;;;;;;;33.28;100.00;95567.91;5050201;28;20185;-90
2021/06/25 09:59:39;;;;;;;10.20;5.80;;;;;;;33.26;100.00;95635.53;5050190;28;20278;-90
2021/06/25 10:02:25;;;;;;;15.85;6.00;;;;;;;33.14;100.00;95648.97;5050286;28;20204;-89
2021/06/25 10:04:53;;;;;;;16.63;6.20;;;;;;;33.22;100.00;95642.75;5049727;28;20258;-90
2021/06/25 10:07:22;;;;;;;17.50;6.07;;;;;;;33.38;100.00;95613.09;5050408;28;20217;-89
2021/06/25 10:09:51;;;;;;;11.60;5.90;;;;;;;33.32;100.00;95720.59;5050281;28;20288;-89
2021/06/25 10:12:22;;;;;;;11.23;6.03;;;;;;;33.40;100.00;95691.78;5050037;28;20254;-90
2021/06/25 10:14:52;;;;;;;10.98;6.10;;;;;;;33.43;100.00;95702.03;5050286;28;20596;-91
2021/06/25 10:17:20;;;;;;;13.85;6.07;;;;;;;33.23;100.00;95722.53;5050046;28;20201;-91
2021/06/25 10:19:48;;;;;;;12.55;5.60;;;;;;;33.38;100.00;95700.25;5050059;28;20232;-90
2021/06/25 10:22:18;;;;;;;7.82;5.60;;;;;;;33.44;100.00;95679.94;5049883;28;20194;-90
2021/06/25 10:24:49;;;;;;;9.32;5.43;;;;;;;33.50;100.00;95784.94;5049839;28;20245;-90
2021/06/25 10:27:19;;;;;;;11.15;5.30;;;;;;;33.51;100.00;95774.84;5049714;28;20368;-91
2021/06/25 10:29:48;;;;;;;11.00;5.43;;;;;;;33.16;100.00;95768.47;5049841;28;20232;-90
2021/06/25 10:32:18;;;;;;;10.55;5.75;;;;;;;33.34;100.00;95749.13;5049990;28;20202;-89
2021/06/25 10:34:47;;;;;;;10.93;6.10;;;;;;;33.43;100.00;95742.88;5049887;28;20198;-89
2021/06/25 10:37:21;;;;;;;13.65;6.00;;;;;;;33.42;100.00;95858.41;5049679;28;20198;-91
2021/06/25 10:39:48;;;;;;;9.90;5.68;;;;;;;33.40;100.00;95858.75;5049646;28;20221;-90
2021/06/25 10:42:16;;;;;;;14.70;6.22;;;;;;;33.54;100.00;95877.75;5049646;28;20194;-89
2021/06/25 10:44:45;;;;;;;10.82;5.78;;;;;;;33.37;100.00;95998.28;5049838;28;20190;-90
2021/06/25 10:47:22;;;;;;;9.45;5.50;;;;;;;33.60;100.00;95937.22;5049459;28;20312;-90
2021/06/25 10:50:31;;;;;;;12.05;5.50;;;;;;;33.77;100.00;95793.94;5049917;28;20547;-90
2021/06/25 10:53:14;;;;;;;8.52;5.82;;;;;;;33.98;100.00;95867.72;5049542;28;20197;-91
2021/06/25 10:55:46;;;;;;;7.88;4.78;;;;;;;33.98;100.00;95862.28;5049625;28;20246;-91
2021/06/25 10:58:21;;;;;;;14.93;6.38;;;;;;;33.94;100.00;95954.00;5049636;28;20272;-91
2021/06/25 11:01:00;;;;;;;8.98;5.32;;;;;;;33.98;100.00;96075.78;5049797;28;20182;-91
2021/06/25 11:03:48;;;;;;;11.00;6.68;;;;;;;33.88;100.00;96129.75;5049408;28;20424;-90
2021/06/25 11:06:51;;;;;;;10.55;5.50;;;;;;;33.77;100.00;96217.25;5049571;28;20209;-90
2021/06/25 11:09:19;;;;;;;15.18;6.13;;;;;;;33.65;100.00;96246.94;5049675;28;20205;-90
2021/06/25 11:11:46;;;;;;;15.00;6.07;;;;;;;33.84;100.00;96228.53;5049962;28;20723;-91
2021/06/25 11:14:27;;;;;;;13.68;6.15;;;;;;;33.91;100.00;96200.00;5049524;28;20190;-90
2021/06/25 11:16:54;;;;;;;12.05;6.55;;;;;;;33.85;100.00;96181.06;5051819;28;20279;-91
2021/06/25 11:19:39;;;;;;;10.30;5.57;;;;;;;34.00;100.00;96206.38;5052834;28;20739;-92
2021/06/25 11:22:37;;;;;;;12.15;6.32;;;;;;;34.02;100.00;96294.13;5053035;28;20281;-90
2021/06/25 11:25:06;;;;;;;11.82;5.43;;;;;;;33.73;100.00;96360.69;5052785;28;20198;-91
2021/06/25 11:28:06;;;;;;;13.32;5.97;;;;;;;33.80;100.00;96286.69;5052288;28;20230;-91
2021/06/25 11:30:52;;;;;;;13.23;6.22;;;;;;;34.04;100.00;96324.59;5052657;28;20255;-90
2021/06/25 11:33:34;;;;;;;13.25;5.50;;;;;;;33.92;100.00;96359.78;5052790;28;20218;-92
2021/06/25 11:36:21;;;;;;;8.93;5.88;;;;;;;34.14;100.00;96339.94;5052755;28;20211;-89
2021/06/25 11:38:56;;;;;;;10.80;5.88;;;;;;;34.13;100.00;96418.22;5052722;28;20190;-89
2021/06/25 11:41:25;;;;;;;14.35;6.22;;;;;;;33.97;100.00;96414.19;5052425;28;20203;-90